Poplar Bluff, MO

9:15 AM CST on January 28, 2015 (GMT -0600)
Poplar Bluff 7 NW | Change Station
CLOSE
Current Station
Personal Weather Station
Location: Poplar Bluff, MO
Elevation: 449 ft
Nearby Weather Stations

Elev 449 ft 36.83 °N, 90.52 °W | Updated 2 seconds ago

Clear
Clear
35.5 °F
Feels Like 36 °F
N
3.0
Wind Variable Wind from ESE
Gusts 14.0 mph

Today
High -- | Low -- °F
--% Chance of Precip.
Yesterday
High -- | Low -- °F
Precip. -- in
7:07 AM 5:22 PM
Waxing Gibbous, 65% visible
Pressure 30.32 in
Visibility 9.0 miles
Clouds Clear
Windchill 36 °F
Dew Point 29 °F
Humidity 76%
Rainfall 0.00 in
Snow Depth Not available.
UV 1 out of 12
Pollen .20 out of 12
Air Quality Not available.
Flu Activity Not available.
METAR KPOF 281453Z AUTO 14007KT 9SM CLR 01/M02 A3030 RMK AO2 SLP265 T00111022 53010

More Conditions Fewer Conditions

Pressure 30.32 in
Visibility 9.0 miles
Clouds Clear
Windchill 36 °F
Dew Point 29 °F
Humidity 76%
Rainfall 0.00 in
Snow Depth Not available.
UV 1 out of 12
Pollen .20 out of 12
Air Quality Not available.
Flu Activity Not available.
METAR KPOF 281453Z AUTO 14007KT 9SM CLR 01/M02 A3030 RMK AO2 SLP265 T00111022 53010

More Conditions Fewer Conditions

10-Day Weather Forecast

Almanac

Astronomy

Jan. 28, 2015 Rise Set
Actual Time
Civil Twilight
Nautical Twilight
Astronomical Twilight
Moon
Length of Visible Light
Length of Day
Tomorrow will be .
, % of the Moon is Illuminated

Today's Extremes

State Highs State Lows

Community

WunderPhotos

Upload Photos

1,791,175 photos uploaded!

WunderBlogs® & News

Nearby

Air Quality

  Air Quality AQ Index Pollutant
Not available.

Snow Depth

Station Depth Elevation

Earthquake Activity

City Distance Mag. Time & Date
Minimum magnitude displayed is 2.5.

Coastal Water Temperatures

Place Temperature

Nearby Weather Stations